Weather forecast for Kerch (Керчь)

Ukraine, 10 m
N45.193, E36.303


Sounding

Red line — air temperature ˚C.
Blue line — thermal bubble temperature ˚C.
Green line — dew point temperature ˚C.
Wind speed is in meters per second.

Table forecast

GFS 0.25˚ model

temp. wind gust humid. clouds prec. press. hpbl
Sun19 00:00 25 43.0 ne 8 14 54 0 0.0 1013 542
03:00 23 51.0 ne 7 13 54 0 0.0 1014 478
06:00 22 52.0 ne 7 12 56 0 0.0 1014 436
09:00 24 54.0 ne 8 12 43 0 0.0 1015 600
12:00 27 47.0 ne 9 11 36 0 0.0 1015 857
15:00 27 37.0 ne 10 11 34 0 0.0 1014 867
18:00 25 36.0 ne 9 13 38 0 0.0 1014 677
21:00 24 40.0 ne 8 15 47 0 0.0 1014 472
 
Mon20 00:00 23 55.0 ne 7 14 46 0 0.0 1014 488
03:00 22 56.0 ne 7 13 47 0 0.0 1014 484
06:00 21 62.0 ene 7 13 47 0 0.0 1014 493
09:00 24 67.0 ene 9 13 33 0 0.0 1015 788
12:00 27 54.0 ne 9 11 27 0 0.0 1014 1159
15:00 28 45.0 ne 9 11 28 0 0.0 1013 1060
18:00 25 33.0 nne 9 13 39 0 0.0 1013 619
21:00 24 43.0 ne 7 14 47 0 0.0 1013 353
 
Tue21 00:00 23 59.0 ene 6 11 44 0 0.0 1013 305
03:00 21 58.0 ene 4 7 52 0 0.0 1013 156
06:00 19 53.0 ne 4 8 58 0 0.0 1013 179
09:00 24 53.0 ne 7 10 41 0 0.0 1014 650
12:00 27 47.0 ne 8 9 35 0 0.0 1014 891
15:00 28 29.0 nne 7 8 34 0 0.0 1013 716
18:00 26 13.0 nne 6 8 37 0 0.0 1013 491
21:00 22 11.0 n 4 7 51 0 0.0 1014 138
 
Wed22 00:00 22 347.0 nnw 4 5 49 0 0.0 1014 91
03:00 21 352.0 n 5 8 54 0 0.0 1014 164
06:00 21 5.0 n 4 5 58 0 0.0 1014 94
09:00 27 6.0 n 5 6 37 0 0.0 1015 455
12:00 30 23.0 nne 4 4 26 0 0.0 1015 824
15:00 31 14.0 nne 4 5 22 0 0.0 1015 998
18:00 29 12.0 nne 3 4 22 0 0.0 1015 489
21:00 24 352.0 n 3 4 31 0 0.0 1016 65
 
Thu23 00:00 24 6.0 n 4 7 52 0 0.0 1016 155
03:00 23 54.0 ne 6 11 71 0 0.0 1016 344
06:00 22 66.0 ene 6 12 70 0 0.0 1016 454
09:00 24 65.0 ene 8 11 53 0 0.0 1017 572
12:00 26 52.0 ne 9 11 41 0 0.0 1016 717
15:00 27 42.0 ne 9 11 38 0 0.0 1016 768
18:00 25 38.0 ne 10 14 40 0 0.0 1015 575
21:00 24 40.0 ne 8 15 45 0 0.0 1015 465
 

0.020 s